Time;durP1;ratioP1;P1;durP2;ratioP2;P2;SDS_P1;SDS_P2;PMS_P1;PMS_P2;Temp;Humidity;BMP_temperature;BMP_pressure;BME280_temperature;BME280_humidity;BME280_pressure;Samples;Min_cycle;Max_cycle;Signal;HPM_P1;HPM_P2
2023/08/25 00:00:30;;;;;;;4.27;3.57;;;;;;;;;;5034465;28;20205;-55
2023/08/25 00:02:56;;;;;;;5.63;3.87;;;;;;;;;;5034036;28;20196;-54
2023/08/25 00:05:22;;;;;;;4.33;3.93;;;;;;;;;;5033789;28;20204;-55
2023/08/25 00:07:48;;;;;;;4.60;3.63;;;;;;;;;;5034123;28;20200;-54
2023/08/25 00:10:14;;;;;;;4.03;3.47;;;;;;;;;;5033917;28;20193;-55
2023/08/25 00:12:42;;;;;;;7.53;3.43;;;;;;;;;;5033870;28;20227;-55
2023/08/25 00:15:08;;;;;;;6.17;3.60;;;;;;;;;;5033752;28;20206;-54
2023/08/25 00:17:34;;;;;;;4.13;3.20;;;;;;;;;;5033650;28;20659;-54
2023/08/25 00:20:00;;;;;;;4.30;3.33;;;;;;;;;;5031869;28;20707;-54
2023/08/25 00:22:27;;;;;;;4.43;3.23;;;;;;;;;;5032159;28;20200;-53
2023/08/25 00:24:55;;;;;;;7.17;3.23;;;;;;;;;;5033672;28;20199;-53
2023/08/25 00:27:21;;;;;;;4.67;3.30;;;;;;;;;;5032571;28;20659;-52
2023/08/25 00:29:49;;;;;;;4.73;3.67;;;;;;;;;;5033826;28;20322;-52
2023/08/25 00:32:15;;;;;;;4.77;3.00;;;;;;;;;;5033415;28;20256;-52
2023/08/25 00:34:41;;;;;;;3.93;3.33;;;;;;;;;;5033754;28;20667;-52
2023/08/25 00:37:07;;;;;;;5.17;3.00;;;;;;;;;;5033526;28;20292;-52
2023/08/25 00:39:33;;;;;;;4.10;2.93;;;;;;;;;;5033642;28;20197;-52
2023/08/25 00:41:59;;;;;;;4.60;2.93;;;;;;;;;;5033255;28;20243;-52
2023/08/25 00:44:25;;;;;;;3.53;2.90;;;;;;;;;;5033635;28;20346;-52
2023/08/25 00:46:52;;;;;;;4.43;3.30;;;;;;;;;;5033317;28;20666;-52
2023/08/25 00:49:20;;;;;;;4.27;3.17;;;;;;;;;;5033287;28;20204;-52
2023/08/25 00:51:46;;;;;;;6.27;3.50;;;;;;;;;;5033335;28;20228;-52
2023/08/25 00:54:13;;;;;;;6.60;3.27;;;;;;;;;;5033320;28;20211;-52
2023/08/25 00:56:39;;;;;;;4.67;2.83;;;;;;;;;;5033368;28;20258;-52
2023/08/25 00:59:05;;;;;;;4.63;3.10;;;;;;;;;;5032763;28;20211;-52
2023/08/25 01:01:31;;;;;;;3.40;2.73;;;;;;;;;;5033135;28;20272;-52
2023/08/25 01:03:58;;;;;;;3.90;2.80;;;;;;;;;;5033135;28;20202;-52
2023/08/25 01:06:24;;;;;;;3.67;2.80;;;;;;;;;;5015453;28;20227;-52
2023/08/25 01:08:51;;;;;;;4.67;2.90;;;;;;;;;;5032522;28;20222;-52
2023/08/25 01:11:56;;;;;;;3.27;2.70;;;;;;;;;;5032952;28;20224;-52
2023/08/25 01:14:23;;;;;;;6.20;2.60;;;;;;;;;;5008732;28;20231;-52
2023/08/25 01:16:53;;;;;;;3.63;2.60;;;;;;;;;;5032789;28;20195;-52
2023/08/25 01:19:36;;;;;;;4.33;2.60;;;;;;;;;;5032705;28;20193;-52
2023/08/25 01:22:06;;;;;;;4.03;2.43;;;;;;;;;;5032667;28;20678;-52
2023/08/25 01:24:34;;;;;;;4.37;2.80;;;;;;;;;;5032814;28;20204;-52
2023/08/25 01:27:02;;;;;;;3.13;2.40;;;;;;;;;;5032510;28;20193;-52
2023/08/25 01:29:28;;;;;;;2.97;2.70;;;;;;;;;;5032736;28;20229;-52
2023/08/25 01:31:54;;;;;;;3.87;2.67;;;;;;;;;;5032594;28;20275;-52
2023/08/25 01:34:20;;;;;;;4.93;2.93;;;;;;;;;;5032507;28;20709;-52
2023/08/25 01:36:50;;;;;;;4.10;2.87;;;;;;;;;;5032613;28;20201;-52
2023/08/25 01:39:16;;;;;;;3.63;3.13;;;;;;;;;;5031820;28;20275;-52
2023/08/25 01:41:43;;;;;;;4.07;3.10;;;;;;;;;;5032367;28;20189;-53
2023/08/25 01:44:12;;;;;;;3.90;2.63;;;;;;;;;;5032187;28;20245;-52
2023/08/25 01:46:40;;;;;;;3.53;2.70;;;;;;;;;;5032230;28;20193;-52
2023/08/25 01:49:07;;;;;;;4.07;2.83;;;;;;;;;;5032126;28;20713;-52
2023/08/25 01:51:34;;;;;;;5.17;3.03;;;;;;;;;;5032035;28;20725;-52
2023/08/25 01:54:00;;;;;;;4.80;3.27;;;;;;;;;;5031706;28;20201;-52
2023/08/25 01:56:26;;;;;;;4.20;2.80;;;;;;;;;;5031844;28;20201;-52
2023/08/25 01:58:52;;;;;;;2.97;2.63;;;;;;;;;;5031665;28;20247;-52
2023/08/25 02:01:19;;;;;;;3.23;2.90;;;;;;;;;;5031815;28;20200;-52
2023/08/25 02:03:45;;;;;;;3.80;2.90;;;;;;;;;;5031699;28;20249;-52
2023/08/25 02:06:12;;;;;;;4.10;3.17;;;;;;;;;;5031886;28;20220;-52
2023/08/25 02:08:38;;;;;;;4.57;2.80;;;;;;;;;;5031856;28;20655;-52
2023/08/25 02:11:04;;;;;;;3.47;3.17;;;;;;;;;;5031663;28;20599;-52
2023/08/25 02:13:30;;;;;;;3.77;2.90;;;;;;;;;;5031809;28;20206;-52
2023/08/25 02:15:56;;;;;;;4.43;3.17;;;;;;;;;;5031832;28;20190;-52
2023/08/25 02:18:24;;;;;;;6.07;3.30;;;;;;;;;;5031786;28;20278;-52
2023/08/25 02:20:50;;;;;;;3.03;2.70;;;;;;;;;;5031669;28;20278;-52
2023/08/25 02:23:16;;;;;;;4.87;2.50;;;;;;;;;;5031545;28;20201;-52
2023/08/25 02:25:42;;;;;;;4.33;3.10;;;;;;;;;;5031593;28;20685;-52
2023/08/25 02:28:08;;;;;;;4.23;3.30;;;;;;;;;;5031573;28;20761;-52
2023/08/25 02:30:34;;;;;;;5.57;3.33;;;;;;;;;;5031644;28;20197;-52
2023/08/25 02:33:00;;;;;;;3.57;3.27;;;;;;;;;;5031326;28;20229;-52
2023/08/25 02:35:28;;;;;;;3.50;3.20;;;;;;;;;;5031587;28;20238;-52
2023/08/25 02:37:58;;;;;;;4.20;3.40;;;;;;;;;;5031496;28;20240;-52
2023/08/25 02:40:24;;;;;;;5.07;3.60;;;;;;;;;;5031662;28;20218;-52
2023/08/25 02:42:50;;;;;;;5.13;3.43;;;;;;;;;;5031334;28;20232;-52
2023/08/25 02:45:16;;;;;;;5.23;3.30;;;;;;;;;;5030998;28;20916;-52
2023/08/25 02:47:42;;;;;;;5.00;3.33;;;;;;;;;;5031204;28;20200;-52
2023/08/25 02:50:09;;;;;;;4.67;3.43;;;;;;;;;;5030652;28;20679;-52
2023/08/25 02:52:36;;;;;;;3.63;3.00;;;;;;;;;;5031230;28;20228;-53
2023/08/25 02:55:02;;;;;;;3.47;3.17;;;;;;;;;;5031213;28;20295;-53
2023/08/25 02:57:28;;;;;;;5.27;3.97;;;;;;;;;;5031073;28;20714;-52
2023/08/25 02:59:54;;;;;;;4.13;3.70;;;;;;;;;;5030082;28;20376;-53
2023/08/25 03:02:20;;;;;;;4.57;4.07;;;;;;;;;;5030198;28;20288;-53
2023/08/25 03:04:46;;;;;;;5.87;3.83;;;;;;;;;;5030898;28;20215;-52
2023/08/25 03:07:12;;;;;;;6.10;3.47;;;;;;;;;;5030840;28;20747;-52
2023/08/25 03:09:40;;;;;;;5.17;4.00;;;;;;;;;;5030917;28;20201;-53
2023/08/25 03:12:06;;;;;;;4.30;3.90;;;;;;;;;;5030701;28;20260;-52
2023/08/25 03:14:32;;;;;;;4.40;3.63;;;;;;;;;;5030886;28;20243;-52
2023/08/25 03:16:58;;;;;;;3.83;3.20;;;;;;;;;;5030778;28;20564;-52
2023/08/25 03:19:24;;;;;;;6.97;4.10;;;;;;;;;;5031076;28;20203;-52
2023/08/25 03:21:50;;;;;;;6.33;4.73;;;;;;;;;;5031016;28;20572;-52
2023/08/25 03:24:16;;;;;;;5.03;4.23;;;;;;;;;;5030930;28;20738;-52
2023/08/25 03:26:44;;;;;;;6.40;4.40;;;;;;;;;;5031013;28;20794;-53
2023/08/25 03:29:10;;;;;;;4.20;3.73;;;;;;;;;;5030960;28;20624;-53
2023/08/25 03:31:36;;;;;;;3.60;3.30;;;;;;;;;;5030810;28;20234;-53
2023/08/25 03:34:02;;;;;;;6.13;4.60;;;;;;;;;;5030870;28;20189;-52
2023/08/25 03:36:30;;;;;;;8.57;4.80;;;;;;;;;;5031013;28;20219;-53
2023/08/25 03:38:56;;;;;;;5.33;3.60;;;;;;;;;;5029687;28;20225;-53
2023/08/25 03:41:22;;;;;;;6.07;4.80;;;;;;;;;;5030853;28;20294;-52
2023/08/25 03:43:49;;;;;;;5.57;4.23;;;;;;;;;;5030426;28;20294;-52
2023/08/25 03:46:15;;;;;;;4.50;3.90;;;;;;;;;;5030653;28;20330;-52
2023/08/25 03:48:41;;;;;;;7.10;3.73;;;;;;;;;;5030747;28;20599;-52
2023/08/25 03:51:07;;;;;;;4.20;3.67;;;;;;;;;;5030652;28;20201;-52
2023/08/25 03:53:34;;;;;;;4.20;3.80;;;;;;;;;;5030767;28;20296;-52
2023/08/25 03:56:00;;;;;;;6.43;4.67;;;;;;;;;;5030609;28;20204;-53
2023/08/25 03:58:26;;;;;;;5.30;4.80;;;;;;;;;;5030814;28;20204;-52
2023/08/25 04:00:55;;;;;;;5.63;4.70;;;;;;;;;;5030687;28;20628;-53
2023/08/25 04:03:21;;;;;;;5.20;4.70;;;;;;;;;;5034269;28;20207;-52
2023/08/25 04:05:47;;;;;;;5.80;5.30;;;;;;;;;;5034034;28;20200;-53
2023/08/25 04:08:13;;;;;;;5.97;5.37;;;;;;;;;;5034092;28;20223;-53
2023/08/25 04:10:41;;;;;;;6.23;5.30;;;;;;;;;;5034274;28;20200;-53
2023/08/25 04:13:07;;;;;;;7.33;5.60;;;;;;;;;;5033954;28;20231;-53
2023/08/25 04:15:33;;;;;;;6.30;5.70;;;;;;;;;;5034137;28;20199;-53
2023/08/25 04:18:00;;;;;;;6.03;5.37;;;;;;;;;;5033901;28;20246;-53
2023/08/25 04:20:26;;;;;;;6.63;5.93;;;;;;;;;;5034111;28;20218;-53
2023/08/25 04:22:52;;;;;;;9.77;5.67;;;;;;;;;;5033800;28;20723;-53
2023/08/25 04:25:18;;;;;;;6.37;5.73;;;;;;;;;;5033463;28;20292;-53
2023/08/25 04:27:44;;;;;;;6.77;5.77;;;;;;;;;;5033448;28;20196;-53
2023/08/25 04:30:11;;;;;;;9.43;5.53;;;;;;;;;;5033877;28;20204;-53
2023/08/25 04:32:37;;;;;;;6.83;5.50;;;;;;;;;;5033519;28;20319;-53
2023/08/25 04:35:05;;;;;;;8.63;5.67;;;;;;;;;;5033328;28;20322;-53
2023/08/25 04:37:31;;;;;;;7.47;6.77;;;;;;;;;;5033631;28;20207;-53
2023/08/25 04:39:57;;;;;;;6.10;5.57;;;;;;;;;;5033659;28;20233;-53
2023/08/25 04:42:23;;;;;;;6.73;5.57;;;;;;;;;;5033604;28;20221;-52
2023/08/25 04:44:49;;;;;;;7.87;5.87;;;;;;;;;;5033212;28;20334;-53
2023/08/25 04:47:16;;;;;;;9.63;6.50;;;;;;;;;;5033224;28;20215;-53
2023/08/25 04:49:43;;;;;;;8.13;6.90;;;;;;;;;;5033488;28;20193;-53
2023/08/25 04:52:10;;;;;;;9.00;6.53;;;;;;;;;;5033357;28;20721;-53
2023/08/25 04:54:36;;;;;;;9.53;7.27;;;;;;;;;;5033435;28;20219;-53
2023/08/25 04:57:03;;;;;;;9.23;8.23;;;;;;;;;;5033197;28;20210;-53
2023/08/25 04:59:29;;;;;;;9.53;8.40;;;;;;;;;;5033377;28;20207;-53
2023/08/25 05:01:55;;;;;;;9.60;8.30;;;;;;;;;;5032700;28;20197;-53
2023/08/25 05:04:21;;;;;;;8.90;8.00;;;;;;;;;;5032880;28;20234;-53
2023/08/25 05:06:47;;;;;;;12.97;9.23;;;;;;;;;;5033130;28;20278;-53
2023/08/25 05:09:14;;;;;;;9.00;7.37;;;;;;;;;;5032729;28;20663;-53
2023/08/25 05:11:40;;;;;;;9.47;7.20;;;;;;;;;;5032990;28;20217;-53
2023/08/25 05:14:07;;;;;;;12.63;8.13;;;;;;;;;;5031925;28;20206;-53
2023/08/25 05:16:33;;;;;;;8.90;8.00;;;;;;;;;;5032673;28;20203;-53
2023/08/25 05:18:59;;;;;;;9.17;7.90;;;;;;;;;;5032425;28;20281;-53
2023/08/25 05:21:25;;;;;;;9.03;8.13;;;;;;;;;;5032440;28;20692;-53
2023/08/25 05:24:11;;;;;;;10.73;7.77;;;;;;;;;;5032567;28;20553;-53
2023/08/25 05:26:38;;;;;;;9.73;7.40;;;;;;;;;;5032387;28;20196;-53
2023/08/25 05:29:04;;;;;;;9.07;8.17;;;;;;;;;;5032279;28;20689;-53
2023/08/25 05:31:30;;;;;;;8.80;7.90;;;;;;;;;;5032144;28;20196;-53
2023/08/25 05:33:56;;;;;;;8.73;7.93;;;;;;;;;;5032323;28;20275;-54
2023/08/25 05:36:22;;;;;;;9.17;7.97;;;;;;;;;;5032101;28;20200;-53
2023/08/25 05:38:48;;;;;;;10.30;9.20;;;;;;;;;;5032396;28;20200;-53
2023/08/25 05:41:14;;;;;;;10.37;8.77;;;;;;;;;;5032119;28;20207;-53
2023/08/25 05:43:41;;;;;;;10.20;8.80;;;;;;;;;;5032417;28;20310;-52
2023/08/25 05:46:07;;;;;;;10.53;8.30;;;;;;;;;;5032155;28;20205;-53
2023/08/25 05:48:33;;;;;;;9.80;8.40;;;;;;;;;;5032201;28;20740;-53
2023/08/25 05:50:59;;;;;;;8.27;7.47;;;;;;;;;;5031908;28;20797;-53
2023/08/25 05:53:25;;;;;;;12.67;9.97;;;;;;;;;;5032191;28;20225;-53
2023/08/25 05:55:51;;;;;;;10.83;8.97;;;;;;;;;;5031917;28;20204;-53
2023/08/25 05:58:17;;;;;;;12.63;9.83;;;;;;;;;;5032035;28;20211;-53
2023/08/25 06:00:45;;;;;;;11.00;9.90;;;;;;;;;;5031931;28;20196;-55
2023/08/25 06:03:11;;;;;;;10.50;9.30;;;;;;;;;;5032059;28;20678;-53
2023/08/25 06:05:37;;;;;;;13.53;10.43;;;;;;;;;;5031825;28;20203;-53
2023/08/25 06:08:03;;;;;;;13.40;10.93;;;;;;;;;;5031517;28;20204;-53
2023/08/25 06:10:29;;;;;;;12.57;11.20;;;;;;;;;;5031619;28;20201;-53
2023/08/25 06:12:55;;;;;;;13.80;11.93;;;;;;;;;;5031358;28;20239;-53
2023/08/25 06:15:22;;;;;;;13.83;12.37;;;;;;;;;;5031728;28;20752;-53
2023/08/25 06:17:49;;;;;;;13.57;12.27;;;;;;;;;;5031571;28;20206;-52
2023/08/25 06:20:16;;;;;;;12.83;11.53;;;;;;;;;;5031436;28;20287;-53
2023/08/25 06:22:42;;;;;;;11.90;10.43;;;;;;;;;;5031402;28;20196;-53
2023/08/25 06:25:08;;;;;;;12.80;11.40;;;;;;;;;;5030658;28;20756;-52
2023/08/25 06:27:35;;;;;;;14.23;12.23;;;;;;;;;;5031443;28;20221;-53
2023/08/25 06:30:02;;;;;;;14.17;11.33;;;;;;;;;;5031415;28;20211;-52
2023/08/25 06:32:28;;;;;;;14.50;12.20;;;;;;;;;;5031050;28;20232;-53
2023/08/25 06:34:56;;;;;;;13.63;11.60;;;;;;;;;;5031575;28;20205;-53
2023/08/25 06:37:22;;;;;;;14.57;12.47;;;;;;;;;;5031440;28;20291;-53
2023/08/25 06:39:48;;;;;;;17.53;14.07;;;;;;;;;;5031461;28;20303;-53
2023/08/25 06:42:14;;;;;;;16.30;13.87;;;;;;;;;;5031044;28;20652;-58
2023/08/25 06:44:40;;;;;;;15.20;13.43;;;;;;;;;;5031408;28;20729;-55
2023/08/25 06:47:06;;;;;;;15.73;13.50;;;;;;;;;;5031042;28;20201;-55
2023/08/25 06:49:32;;;;;;;11.90;10.70;;;;;;;;;;5031124;28;20202;-56
2023/08/25 06:52:00;;;;;;;14.53;13.03;;;;;;;;;;5030829;28;20217;-56
2023/08/25 06:54:26;;;;;;;18.00;12.10;;;;;;;;;;5029236;28;20724;-56
2023/08/25 06:56:52;;;;;;;17.37;15.40;;;;;;;;;;5030446;28;20212;-56
2023/08/25 06:59:19;;;;;;;16.07;14.43;;;;;;;;;;5030713;28;20199;-56
2023/08/25 07:01:45;;;;;;;16.27;14.67;;;;;;;;;;5030743;28;20654;-56
2023/08/25 07:04:11;;;;;;;22.20;15.63;;;;;;;;;;5030806;28;20252;-56
2023/08/25 07:06:37;;;;;;;12.87;11.57;;;;;;;;;;5030865;28;20660;-57
2023/08/25 07:09:04;;;;;;;15.07;13.50;;;;;;;;;;5030914;28;20186;-56
2023/08/25 07:11:30;;;;;;;15.47;13.93;;;;;;;;;;5030866;28;20209;-57
2023/08/25 07:13:56;;;;;;;15.10;12.00;;;;;;;;;;5030880;28;20209;-57
2023/08/25 07:16:24;;;;;;;14.37;12.90;;;;;;;;;;5030761;28;20189;-57
2023/08/25 07:18:50;;;;;;;22.80;13.97;;;;;;;;;;5030721;28;20785;-57
2023/08/25 07:21:16;;;;;;;13.80;12.40;;;;;;;;;;5030706;28;20204;-57
2023/08/25 07:23:42;;;;;;;13.77;12.27;;;;;;;;;;5030736;28;20200;-55
2023/08/25 07:26:10;;;;;;;12.90;11.47;;;;;;;;;;5030196;28;20283;-56
2023/08/25 07:28:36;;;;;;;12.03;8.73;;;;;;;;;;5050719;28;20204;-55
2023/08/25 07:31:04;;;;;;;11.23;10.13;;;;;;;;;;5050502;28;20275;-55
2023/08/25 07:33:30;;;;;;;12.87;11.47;;;;;;;;;;5050538;28;20303;-56
2023/08/25 07:35:57;;;;;;;11.60;10.40;;;;;;;;;;5050937;28;20238;-56
2023/08/25 07:38:23;;;;;;;15.07;11.57;;;;;;;;;;5054553;28;20194;-56
2023/08/25 07:40:49;;;;;;;12.70;11.50;;;;;;;;;;5054666;28;20192;-56
2023/08/25 07:43:17;;;;;;;10.23;9.23;;;;;;;;;;5052432;28;20232;-55
2023/08/25 07:45:43;;;;;;;12.77;10.13;;;;;;;;;;5052345;28;20272;-56
2023/08/25 07:48:09;;;;;;;11.43;10.07;;;;;;;;;;5054652;28;20617;-56
2023/08/25 07:50:35;;;;;;;8.90;8.00;;;;;;;;;;5050982;28;21026;-53
2023/08/25 07:53:01;;;;;;;13.47;9.10;;;;;;;;;;5033899;28;20911;-52
2023/08/25 07:55:27;;;;;;;11.33;8.77;;;;;;;;;;5034346;28;20219;-52
2023/08/25 07:57:53;;;;;;;11.40;9.07;;;;;;;;;;5034264;28;20238;-52
2023/08/25 08:00:21;;;;;;;8.47;7.57;;;;;;;;;;5034068;28;20196;-53
2023/08/25 08:02:47;;;;;;;11.97;9.50;;;;;;;;;;5034268;28;20192;-53
2023/08/25 08:05:15;;;;;;;9.63;8.73;;;;;;;;;;5033981;28;20199;-53
2023/08/25 08:07:44;;;;;;;10.67;9.67;;;;;;;;;;5034075;28;20671;-54
2023/08/25 08:10:11;;;;;;;8.07;7.27;;;;;;;;;;5034241;28;20437;-52
2023/08/25 08:12:38;;;;;;;9.53;7.97;;;;;;;;;;5034110;28;20229;-51
2023/08/25 08:15:05;;;;;;;9.60;7.67;;;;;;;;;;5033994;28;20223;-52
2023/08/25 08:17:33;;;;;;;10.00;8.87;;;;;;;;;;5033906;28;20192;-52
2023/08/25 08:19:59;;;;;;;8.57;7.60;;;;;;;;;;5033994;28;20208;-52
2023/08/25 08:22:25;;;;;;;11.53;10.43;;;;;;;;;;5033463;28;20565;-52
2023/08/25 08:24:51;;;;;;;11.93;10.50;;;;;;;;;;5033867;28;20690;-52
2023/08/25 08:27:18;;;;;;;10.37;9.37;;;;;;;;;;5033689;28;20204;-52
2023/08/25 08:29:45;;;;;;;11.30;10.30;;;;;;;;;;5033811;28;20225;-52
2023/08/25 08:32:12;;;;;;;9.77;8.57;;;;;;;;;;5033573;28;20225;-52
2023/08/25 08:34:39;;;;;;;9.73;8.93;;;;;;;;;;5033832;28;20200;-52
2023/08/25 08:37:05;;;;;;;10.00;9.00;;;;;;;;;;5033368;28;20672;-51
2023/08/25 08:39:32;;;;;;;11.57;10.37;;;;;;;;;;5033450;28;20203;-52
2023/08/25 08:41:58;;;;;;;10.07;9.07;;;;;;;;;;5033395;28;20223;-52
2023/08/25 08:44:25;;;;;;;9.83;8.83;;;;;;;;;;5033363;28;20297;-52
2023/08/25 08:46:53;;;;;;;9.07;8.17;;;;;;;;;;5033412;28;20303;-51
2023/08/25 08:49:22;;;;;;;8.10;5.80;;;;;;;;;;5032246;28;20208;-51
2023/08/25 08:51:50;;;;;;;7.83;7.03;;;;;;;;;;5033372;28;20641;-51
2023/08/25 08:54:19;;;;;;;7.77;6.93;;;;;;;;;;5033352;28;20230;-51
2023/08/25 08:56:45;;;;;;;9.47;7.30;;;;;;;;;;5033364;28;20211;-51
2023/08/25 08:59:11;;;;;;;7.10;5.97;;;;;;;;;;5032966;28;20548;-52
2023/08/25 09:01:41;;;;;;;10.47;7.20;;;;;;;;;;5033169;28;20207;-51
2023/08/25 09:04:08;;;;;;;8.20;7.13;;;;;;;;;;5032998;28;20207;-52
2023/08/25 09:06:35;;;;;;;8.37;7.57;;;;;;;;;;5033006;28;20201;-52
2023/08/25 09:09:08;;;;;;;8.40;7.50;;;;;;;;;;5032656;28;20211;-53
2023/08/25 09:11:35;;;;;;;7.90;7.20;;;;;;;;;;5033078;28;20215;-53
2023/08/25 09:14:04;;;;;;;8.43;7.63;;;;;;;;;;5032866;28;20239;-53
2023/08/25 09:16:33;;;;;;;6.00;5.40;;;;;;;;;;5032828;28;20210;-53
2023/08/25 09:19:00;;;;;;;8.27;5.70;;;;;;;;;;5032764;28;20612;-53
2023/08/25 09:21:26;;;;;;;9.97;8.97;;;;;;;;;;5032666;28;20219;-53
2023/08/25 09:23:54;;;;;;;8.73;7.53;;;;;;;;;;5032666;28;20279;-53
2023/08/25 09:26:21;;;;;;;9.23;8.27;;;;;;;;;;5030234;28;20199;-54
2023/08/25 09:28:47;;;;;;;9.30;6.70;;;;;;;;;;5032150;28;20207;-52
2023/08/25 09:31:20;;;;;;;8.73;7.73;;;;;;;;;;5032057;28;20256;-53
2023/08/25 09:33:46;;;;;;;7.07;5.77;;;;;;;;;;5031884;28;20222;-53
2023/08/25 09:36:12;;;;;;;9.83;7.40;;;;;;;;;;5032206;28;20302;-52
2023/08/25 09:38:44;;;;;;;8.23;7.47;;;;;;;;;;5032376;28;20291;-52
2023/08/25 09:41:10;;;;;;;7.97;7.17;;;;;;;;;;5032340;28;20619;-53
2023/08/25 09:43:38;;;;;;;9.47;8.43;;;;;;;;;;5032254;28;20627;-53
2023/08/25 09:46:06;;;;;;;10.37;7.73;;;;;;;;;;5031936;28;20245;-52
2023/08/25 09:48:32;;;;;;;8.63;6.57;;;;;;;;;;5032170;28;20194;-52
2023/08/25 09:50:58;;;;;;;8.27;6.47;;;;;;;;;;5031786;28;20201;-53
2023/08/25 09:53:25;;;;;;;6.53;5.73;;;;;;;;;;5031660;28;20630;-53
2023/08/25 09:55:57;;;;;;;10.17;7.63;;;;;;;;;;5031991;28;20280;-52
2023/08/25 09:58:24;;;;;;;12.00;7.27;;;;;;;;;;5031342;28;20621;-53
2023/08/25 10:00:51;;;;;;;7.20;6.53;;;;;;;;;;5031228;28;20673;-53
2023/08/25 10:03:17;;;;;;;7.77;7.00;;;;;;;;;;5031450;28;20201;-53
2023/08/25 10:05:45;;;;;;;9.60;6.47;;;;;;;;;;5031568;28;20284;-52
2023/08/25 10:08:11;;;;;;;7.37;5.80;;;;;;;;;;5014205;28;20616;-52
2023/08/25 10:10:39;;;;;;;7.20;5.80;;;;;;;;;;5031969;28;20205;-52
2023/08/25 10:13:05;;;;;;;6.40;5.80;;;;;;;;;;5031591;28;20317;-50
2023/08/25 10:15:32;;;;;;;8.13;6.00;;;;;;;;;;5031610;28;20612;-48
2023/08/25 10:18:06;;;;;;;7.77;5.00;;;;;;;;;;5031595;28;20689;-51
2023/08/25 10:20:33;;;;;;;7.43;5.73;;;;;;;;;;5031820;28;20213;-50
2023/08/25 10:23:00;;;;;;;7.37;5.37;;;;;;;;;;5031741;28;20202;-51
2023/08/25 10:25:28;;;;;;;6.67;5.80;;;;;;;;;;5031701;28;20197;-51
2023/08/25 10:27:54;;;;;;;5.97;5.40;;;;;;;;;;5031671;28;20206;-51
2023/08/25 10:30:21;;;;;;;6.63;5.90;;;;;;;;;;5031370;28;20208;-51
2023/08/25 10:32:51;;;;;;;6.70;5.10;;;;;;;;;;5030209;28;20341;-51
2023/08/25 10:35:36;;;;;;;9.73;6.20;;;;;;;;;;5031177;28;20228;-51
2023/08/25 10:38:03;;;;;;;6.50;5.80;;;;;;;;;;5031511;28;20221;-51
2023/08/25 10:40:40;;;;;;;7.53;5.70;;;;;;;;;;5031283;28;20723;-50
2023/08/25 10:43:06;;;;;;;8.90;8.00;;;;;;;;;;5031249;28;20209;-50
2023/08/25 10:45:35;;;;;;;8.47;7.27;;;;;;;;;;5031174;28;20241;-51
2023/08/25 10:48:01;;;;;;;5.63;5.00;;;;;;;;;;5031269;28;20202;-51
2023/08/25 10:50:29;;;;;;;5.73;5.03;;;;;;;;;;5031035;28;20192;-51
2023/08/25 10:52:55;;;;;;;8.07;5.30;;;;;;;;;;5031356;28;20261;-51
2023/08/25 10:55:28;;;;;;;6.13;5.50;;;;;;;;;;5013360;28;20665;-51
2023/08/25 10:58:00;;;;;;;5.10;4.50;;;;;;;;;;5031119;28;20203;-51
2023/08/25 11:00:28;;;;;;;6.57;6.00;;;;;;;;;;5030973;28;20666;-52
2023/08/25 11:02:55;;;;;;;15.87;14.37;;;;;;;;;;5031321;28;20242;-52
2023/08/25 11:05:38;;;;;;;7.63;6.47;;;;;;;;;;5030930;28;20216;-52
2023/08/25 11:08:05;;;;;;;7.87;5.97;;;;;;;;;;5030982;28;20290;-52
2023/08/25 11:10:35;;;;;;;7.03;5.73;;;;;;;;;;5031137;28;20210;-52
2023/08/25 11:13:05;;;;;;;5.87;5.20;;;;;;;;;;5037000;28;20234;-52
2023/08/25 11:15:31;;;;;;;6.57;5.77;;;;;;;;;;5037518;28;20210;-52
2023/08/25 11:17:57;;;;;;;7.17;5.30;;;;;;;;;;5037726;28;20205;-52
2023/08/25 11:20:23;;;;;;;6.60;5.37;;;;;;;;;;5037474;28;20858;-52
2023/08/25 11:22:54;;;;;;;5.93;5.33;;;;;;;;;;5037112;28;20277;-52
2023/08/25 11:25:21;;;;;;;7.10;5.67;;;;;;;;;;5037337;28;20567;-52
2023/08/25 11:27:48;;;;;;;8.23;5.60;;;;;;;;;;5037451;28;20198;-52
2023/08/25 11:30:15;;;;;;;9.70;6.30;;;;;;;;;;5037385;28;20195;-52
2023/08/25 11:32:41;;;;;;;6.83;5.50;;;;;;;;;;5037580;28;20230;-52
2023/08/25 11:35:09;;;;;;;8.03;6.50;;;;;;;;;;5037214;28;20244;-51
2023/08/25 11:37:35;;;;;;;8.33;6.60;;;;;;;;;;5037228;28;20558;-51
2023/08/25 11:40:03;;;;;;;7.97;5.80;;;;;;;;;;5037304;28;20203;-52
2023/08/25 11:42:29;;;;;;;8.20;6.17;;;;;;;;;;5037160;28;20249;-52
2023/08/25 11:44:55;;;;;;;8.50;6.63;;;;;;;;;;5037259;28;20266;-52
2023/08/25 11:47:22;;;;;;;5.93;5.33;;;;;;;;;;5037032;28;20685;-56
2023/08/25 11:49:51;;;;;;;7.83;6.90;;;;;;;;;;5037164;28;20721;-52
2023/08/25 11:52:18;;;;;;;9.27;7.77;;;;;;;;;;5036915;28;20229;-52
2023/08/25 11:54:45;;;;;;;7.40;6.80;;;;;;;;;;5037406;28;20221;-52
2023/08/25 11:57:12;;;;;;;14.37;7.83;;;;;;;;;;5037460;28;20199;-52
2023/08/25 11:59:41;;;;;;;10.17;7.93;;;;;;;;;;5035026;28;20690;-53
2023/08/25 12:02:07;;;;;;;11.20;8.83;;;;;;;;;;5036763;28;20194;-53
2023/08/25 12:04:33;;;;;;;11.00;9.90;;;;;;;;;;5036517;28;20197;-52
2023/08/25 12:07:02;;;;;;;12.40;11.20;;;;;;;;;;5036903;28;20203;-52
2023/08/25 12:09:28;;;;;;;9.93;8.87;;;;;;;;;;5036106;28;20211;-53
2023/08/25 12:11:54;;;;;;;9.70;8.67;;;;;;;;;;5036238;28;20216;-52
2023/08/25 12:14:25;;;;;;;9.17;7.70;;;;;;;;;;5036531;28;20199;-53
2023/08/25 12:16:51;;;;;;;8.63;7.40;;;;;;;;;;5037068;28;20264;-53
2023/08/25 12:19:17;;;;;;;10.77;8.80;;;;;;;;;;5036646;28;20664;-55
2023/08/25 12:21:43;;;;;;;10.47;9.27;;;;;;;;;;5036854;28;20209;-54
2023/08/25 12:24:09;;;;;;;11.07;9.90;;;;;;;;;;5033731;28;20214;-54
2023/08/25 12:26:35;;;;;;;12.33;10.70;;;;;;;;;;5033415;28;20557;-53
2023/08/25 12:29:02;;;;;;;12.57;10.97;;;;;;;;;;5033615;28;20261;-52
2023/08/25 12:31:29;;;;;;;12.37;10.57;;;;;;;;;;5033260;28;20201;-53
2023/08/25 12:33:55;;;;;;;11.17;10.07;;;;;;;;;;5033590;28;20277;-54
2023/08/25 12:36:22;;;;;;;15.77;10.23;;;;;;;;;;5033364;28;20200;-54
2023/08/25 12:38:48;;;;;;;12.67;10.17;;;;;;;;;;5033570;28;20680;-51
2023/08/25 12:41:14;;;;;;;12.30;10.00;;;;;;;;;;5033208;28;20201;-52
2023/08/25 12:43:40;;;;;;;10.47;9.50;;;;;;;;;;5027704;28;20302;-53
2023/08/25 12:46:06;;;;;;;10.07;8.43;;;;;;;;;;5032814;28;20241;-54
2023/08/25 12:48:33;;;;;;;9.13;8.20;;;;;;;;;;5032799;28;20203;-53
2023/08/25 12:50:59;;;;;;;13.57;8.70;;;;;;;;;;5032811;28;20537;-53
2023/08/25 12:53:25;;;;;;;9.50;7.67;;;;;;;;;;5032531;28;20236;-52
2023/08/25 12:55:53;;;;;;;7.73;7.00;;;;;;;;;;5033216;28;20209;-53
2023/08/25 12:58:19;;;;;;;7.37;6.77;;;;;;;;;;5032820;28;20574;-53
2023/08/25 13:00:45;;;;;;;6.60;6.00;;;;;;;;;;5033018;28;20664;-53
2023/08/25 13:03:11;;;;;;;7.40;6.70;;;;;;;;;;5032831;28;20569;-51
2023/08/25 13:05:38;;;;;;;6.37;5.73;;;;;;;;;;5033186;28;20607;-52
2023/08/25 13:08:04;;;;;;;7.83;6.90;;;;;;;;;;5032893;28;20219;-53
2023/08/25 13:10:32;;;;;;;8.40;6.27;;;;;;;;;;5032403;28;20226;-52
2023/08/25 13:12:58;;;;;;;6.97;5.93;;;;;;;;;;5032724;28;20221;-52
2023/08/25 13:15:24;;;;;;;7.67;6.47;;;;;;;;;;5032461;28;20196;-54
2023/08/25 13:17:51;;;;;;;7.30;6.50;;;;;;;;;;5032682;28;20254;-55
2023/08/25 13:20:17;;;;;;;7.33;6.47;;;;;;;;;;5032485;28;20196;-54
2023/08/25 13:22:44;;;;;;;8.50;7.00;;;;;;;;;;5032922;28;20219;-53
2023/08/25 13:25:10;;;;;;;9.10;7.30;;;;;;;;;;5032133;28;20205;-53
2023/08/25 13:27:37;;;;;;;8.57;7.80;;;;;;;;;;5032754;28;20197;-55
2023/08/25 13:30:05;;;;;;;7.57;6.97;;;;;;;;;;5032464;28;20219;-54
2023/08/25 13:32:31;;;;;;;9.03;7.73;;;;;;;;;;5032237;28;20282;-55
2023/08/25 13:34:57;;;;;;;10.53;7.07;;;;;;;;;;5032032;28;20205;-54
2023/08/25 13:37:23;;;;;;;10.00;7.40;;;;;;;;;;5032235;28;20205;-54
2023/08/25 13:39:50;;;;;;;8.97;6.37;;;;;;;;;;5032352;28;20569;-52
2023/08/25 13:42:16;;;;;;;9.97;6.30;;;;;;;;;;5032001;28;20633;-53
2023/08/25 13:44:42;;;;;;;6.90;6.20;;;;;;;;;;5032015;28;20278;-51
2023/08/25 13:47:08;;;;;;;6.50;6.00;;;;;;;;;;5031890;28;20197;-53
2023/08/25 13:49:35;;;;;;;6.80;6.10;;;;;;;;;;5032139;28;20209;-51
2023/08/25 13:52:01;;;;;;;7.60;6.90;;;;;;;;;;5032145;28;20200;-51
2023/08/25 13:54:27;;;;;;;6.43;5.20;;;;;;;;;;5031970;28;20204;-52
2023/08/25 13:56:54;;;;;;;7.10;6.00;;;;;;;;;;5031816;28;20209;-53
2023/08/25 13:59:20;;;;;;;5.97;5.30;;;;;;;;;;5031919;28;20197;-52
2023/08/25 14:01:46;;;;;;;7.17;6.47;;;;;;;;;;5032021;28;20272;-52
2023/08/25 14:04:12;;;;;;;6.77;6.07;;;;;;;;;;5031972;28;20276;-52
2023/08/25 14:06:39;;;;;;;7.57;6.80;;;;;;;;;;5031925;28;20202;-52
2023/08/25 14:09:05;;;;;;;8.27;5.43;;;;;;;;;;5031716;28;20289;-52
2023/08/25 14:11:31;;;;;;;5.73;5.07;;;;;;;;;;5031609;28;20198;-53
2023/08/25 14:13:58;;;;;;;5.97;4.63;;;;;;;;;;5031426;28;20221;-51
2023/08/25 14:16:25;;;;;;;5.70;3.93;;;;;;;;;;5031255;28;20281;-51
2023/08/25 14:18:51;;;;;;;5.03;4.20;;;;;;;;;;5031410;28;20196;-53
2023/08/25 14:21:17;;;;;;;5.20;4.70;;;;;;;;;;5031234;28;20597;-52
2023/08/25 14:23:43;;;;;;;6.93;4.40;;;;;;;;;;5031843;28;20193;-53
2023/08/25 14:26:09;;;;;;;5.73;3.90;;;;;;;;;;5031054;28;20202;-52
2023/08/25 14:28:35;;;;;;;4.67;4.23;;;;;;;;;;5030726;28;20318;-52
2023/08/25 14:31:07;;;;;;;4.57;3.73;;;;;;;;;;5031438;28;20248;-52
2023/08/25 14:33:33;;;;;;;5.27;4.13;;;;;;;;;;5031011;28;20290;-53
2023/08/25 14:35:59;;;;;;;4.23;3.60;;;;;;;;;;5030772;28;20194;-52